TimeEDT,TemperatureF,Dew PointF,Humidity,Sea Level PressureIn,VisibilityMPH,Wind Direction,Wind SpeedMPH,Gust SpeedMPH,PrecipitationIn,Events,Conditions,WindDirDegrees,DateUTC
12:15 AM,60.3,59.5,97,30.38,5.0,Calm,Calm,-,N/A,,Clear,0,2013-08-25 04:15:00
12:35 AM,59.4,59.0,99,30.38,7.0,Calm,Calm,-,N/A,,Clear,0,2013-08-25 04:35:00
12:55 AM,59.0,58.3,97,30.39,3.0,Calm,Calm,-,N/A,,Clear,0,2013-08-25 04:55:00
1:15 AM,58.1,57.6,98,30.39,5.0,Calm,Calm,-,N/A,,Clear,0,2013-08-25 05:15:00
1:35 AM,57.6,57.2,99,30.39,4.0,Calm,Calm,-,N/A,,Clear,0,2013-08-25 05:35:00
1:55 AM,57.0,56.5,98,30.38,5.0,Calm,Calm,-,N/A,,Clear,0,2013-08-25 05:55:00
2:15 AM,55.8,55.2,98,30.38,4.0,Calm,Calm,-,N/A,,Scattered Clouds,0,2013-08-25 06:15:00
2:35 AM,56.3,55.8,98,30.39,1.0,Calm,Calm,-,N/A,,Overcast,0,2013-08-25 06:35:00
2:55 AM,55.8,55.2,98,30.39,1.0,Calm,Calm,-,N/A,,Mostly Cloudy,0,2013-08-25 06:55:00
3:15 AM,55.6,54.9,97,30.39,0.2,Calm,Calm,-,N/A,Fog,Fog,0,2013-08-25 07:15:00
3:35 AM,55.4,54.7,97,30.39,2.0,Calm,Calm,-,N/A,,Overcast,0,2013-08-25 07:35:00
3:55 AM,55.2,54.5,97,30.39,0.5,Calm,Calm,-,N/A,Fog,Fog,0,2013-08-25 07:55:00
4:15 AM,54.5,53.8,97,30.39,0.8,Calm,Calm,-,N/A,,Overcast,0,2013-08-25 08:15:00
4:35 AM,54.9,54.1,97,30.40,0.2,Calm,Calm,-,N/A,Fog,Fog,0,2013-08-25 08:35:00
4:55 AM,54.9,54.1,97,30.40,0.2,Calm,Calm,-,N/A,Fog,Fog,0,2013-08-25 08:55:00
5:15 AM,54.9,54.1,97,30.40,0.2,Calm,Calm,-,N/A,Fog,Fog,0,2013-08-25 09:15:00
5:35 AM,54.5,53.6,97,30.41,0.5,Calm,Calm,-,N/A,Fog,Fog,0,2013-08-25 09:35:00
5:55 AM,54.5,53.6,97,30.41,0.2,Calm,Calm,-,N/A,Fog,Fog,0,2013-08-25 09:55:00
6:15 AM,53.6,52.7,97,30.41,0.2,Calm,Calm,-,N/A,Fog,Fog,0,2013-08-25 10:15:00
6:35 AM,53.6,52.7,97,30.42,0.5,Calm,Calm,-,N/A,Fog,Fog,0,2013-08-25 10:35:00
6:55 AM,53.4,52.5,97,30.42,0.2,Calm,Calm,-,N/A,Fog,Fog,0,2013-08-25 10:55:00
7:15 AM,53.2,52.3,97,30.43,0.2,Calm,Calm,-,N/A,Fog,Fog,0,2013-08-25 11:15:00
7:35 AM,52.9,52.0,97,30.44,0.2,Calm,Calm,-,N/A,Fog,Fog,0,2013-08-25 11:35:00
7:55 AM,52.9,52.0,97,30.44,0.2,Calm,Calm,-,N/A,Fog,Fog,0,2013-08-25 11:55:00
8:15 AM,52.9,52.0,97,30.44,0.2,Calm,Calm,-,N/A,Fog,Fog,0,2013-08-25 12:15:00
8:35 AM,53.6,52.7,97,30.45,0.8,Calm,Calm,-,N/A,,Overcast,0,2013-08-25 12:35:00
8:55 AM,54.5,53.4,96,30.46,0.8,Calm,Calm,-,N/A,,Overcast,0,2013-08-25 12:55:00
9:15 AM,54.7,53.6,96,30.46,7.0,Calm,Calm,-,N/A,,Overcast,0,2013-08-25 13:15:00
9:35 AM,55.9,54.9,96,30.46,10.0,Calm,Calm,-,N/A,,Scattered Clouds,0,2013-08-25 13:35:00
9:55 AM,57.7,56.8,97,30.46,10.0,Calm,Calm,-,N/A,,Clear,0,2013-08-25 13:55:00
10:15 AM,59.2,58.3,97,30.46,10.0,Calm,Calm,-,N/A,,Clear,0,2013-08-25 14:15:00
10:35 AM,63.7,55.2,74,30.46,10.0,Calm,Calm,-,N/A,,Clear,0,2013-08-25 14:35:00
10:55 AM,66.2,51.4,59,30.44,10.0,Calm,Calm,-,N/A,,Clear,0,2013-08-25 14:55:00
11:15 AM,67.5,50.9,55,30.44,10.0,Calm,Calm,-,N/A,,Clear,0,2013-08-25 15:15:00
11:35 AM,69.3,52.7,56,30.43,10.0,Calm,Calm,-,N/A,,Clear,0,2013-08-25 15:35:00
11:55 AM,71.1,52.5,52,30.43,10.0,Calm,Calm,-,N/A,,Scattered Clouds,0,2013-08-25 15:55:00
12:15 PM,72.0,52.3,50,30.43,10.0,Calm,Calm,-,N/A,,Scattered Clouds,0,2013-08-25 16:15:00
12:35 PM,73.0,52.9,49,30.42,10.0,Calm,Calm,-,N/A,,Scattered Clouds,0,2013-08-25 16:35:00
12:55 PM,74.1,52.9,47,30.41,10.0,Calm,Calm,-,N/A,,Clear,0,2013-08-25 16:55:00
1:15 PM,75.6,53.6,46,30.40,10.0,NE,3.5,-,N/A,,Clear,40,2013-08-25 17:15:00
1:35 PM,76.5,52.7,43,30.40,10.0,Calm,Calm,-,N/A,,Clear,0,2013-08-25 17:35:00
1:55 PM,76.1,55.0,48,30.38,10.0,Calm,Calm,-,N/A,,Clear,0,2013-08-25 17:55:00
2:15 PM,76.8,53.1,44,30.38,10.0,Calm,Calm,-,N/A,,Clear,0,2013-08-25 18:15:00
2:35 PM,76.8,53.4,44,30.37,10.0,Calm,Calm,-,N/A,,Scattered Clouds,0,2013-08-25 18:35:00
2:55 PM,78.4,52.9,41,30.35,10.0,East,3.5,-,N/A,,Scattered Clouds,100,2013-08-25 18:55:00
3:15 PM,78.1,52.5,41,30.34,10.0,Calm,Calm,-,N/A,,Scattered Clouds,0,2013-08-25 19:15:00
3:35 PM,78.8,54.3,43,30.34,10.0,Calm,Calm,-,N/A,,Scattered Clouds,0,2013-08-25 19:35:00
3:55 PM,79.7,54.9,42,30.34,10.0,Calm,Calm,-,N/A,,Scattered Clouds,0,2013-08-25 19:55:00
4:15 PM,79.7,55.8,44,30.33,10.0,South,4.6,-,N/A,,Scattered Clouds,180,2013-08-25 20:15:00
4:35 PM,79.5,54.5,42,30.33,10.0,Calm,Calm,-,N/A,,Scattered Clouds,0,2013-08-25 20:35:00
4:55 PM,78.3,54.3,43,30.33,10.0,Calm,Calm,-,N/A,,Scattered Clouds,0,2013-08-25 20:55:00
5:15 PM,79.0,56.8,46,30.32,10.0,Calm,Calm,-,N/A,,Scattered Clouds,0,2013-08-25 21:15:00
5:35 PM,78.1,58.5,51,30.33,10.0,South,6.9,-,N/A,,Clear,170,2013-08-25 21:35:00
5:55 PM,76.5,58.6,54,30.33,10.0,SSW,4.6,-,N/A,,Clear,200,2013-08-25 21:55:00
6:15 PM,76.1,58.6,55,30.33,10.0,SSE,6.9,-,N/A,,Clear,150,2013-08-25 22:15:00
6:35 PM,75.2,59.5,58,30.33,10.0,Calm,Calm,-,N/A,,Clear,0,2013-08-25 22:35:00
6:55 PM,74.3,59.7,60,30.33,10.0,Calm,Calm,-,N/A,,Clear,0,2013-08-25 22:55:00
7:15 PM,73.4,59.5,62,30.34,10.0,Calm,Calm,-,N/A,,Clear,0,2013-08-25 23:15:00
7:35 PM,72.5,59.0,62,30.34,10.0,Calm,Calm,-,N/A,,Scattered Clouds,0,2013-08-25 23:35:00
7:55 PM,70.9,59.2,66,30.35,10.0,Calm,Calm,-,N/A,,Scattered Clouds,0,2013-08-25 23:55:00
8:15 PM,69.3,59.4,71,30.36,10.0,Calm,Calm,-,N/A,,Mostly Cloudy,0,2013-08-26 00:15:00
8:35 PM,68.0,59.4,74,30.36,10.0,Calm,Calm,-,N/A,,Overcast,0,2013-08-26 00:35:00
8:55 PM,67.3,59.7,77,30.37,10.0,Calm,Calm,-,N/A,,Overcast,0,2013-08-26 00:55:00
9:15 PM,66.2,60.1,81,30.38,10.0,Calm,Calm,-,N/A,,Overcast,0,2013-08-26 01:15:00
9:35 PM,65.8,60.4,83,30.38,10.0,Calm,Calm,-,N/A,,Overcast,0,2013-08-26 01:35:00
9:55 PM,64.8,60.1,85,30.39,7.0,Calm,Calm,-,N/A,,Mostly Cloudy,0,2013-08-26 01:55:00
10:15 PM,64.0,60.3,87,30.39,10.0,Calm,Calm,-,N/A,,Overcast,0,2013-08-26 02:15:00
10:35 PM,65.3,59.7,82,30.40,10.0,Calm,Calm,-,N/A,,Overcast,0,2013-08-26 02:35:00
10:55 PM,64.8,59.7,84,30.40,10.0,Calm,Calm,-,N/A,,Overcast,0,2013-08-26 02:55:00
11:15 PM,64.4,59.7,85,30.40,10.0,Calm,Calm,-,N/A,,Overcast,0,2013-08-26 03:15:00
11:35 PM,64.4,59.9,85,30.41,10.0,Calm,Calm,-,N/A,,Overcast,0,2013-08-26 03:35:00
11:55 PM,64.6,59.9,85,30.41,10.0,Calm,Calm,-,N/A,,Overcast,0,2013-08-26 03:55:00